sensor_id;sensor_type;location;lat;lon;timestamp;P1;durP1;ratioP1;P2;durP2;ratioP2
76589;SDS011;65471;55.908;37.880;2023-07-31T00:00:15;41.50;;;13.30;;
76589;SDS011;65471;55.908;37.880;2023-07-31T00:02:42;35.47;;;11.90;;
76589;SDS011;65471;55.908;37.880;2023-07-31T00:05:09;49.13;;;11.88;;
76589;SDS011;65471;55.908;37.880;2023-07-31T00:07:36;33.60;;;10.85;;
76589;SDS011;65471;55.908;37.880;2023-07-31T00:10:03;35.72;;;11.27;;
76589;SDS011;65471;55.908;37.880;2023-07-31T00:12:30;32.90;;;11.35;;
76589;SDS011;65471;55.908;37.880;2023-07-31T00:14:57;28.83;;;11.57;;
76589;SDS011;65471;55.908;37.880;2023-07-31T00:17:24;32.53;;;10.70;;
76589;SDS011;65471;55.908;37.880;2023-07-31T00:19:51;36.55;;;11.07;;
76589;SDS011;65471;55.908;37.880;2023-07-31T00:22:18;27.05;;;10.68;;
76589;SDS011;65471;55.908;37.880;2023-07-31T00:24:45;30.30;;;10.18;;
76589;SDS011;65471;55.908;37.880;2023-07-31T00:27:12;23.58;;;10.27;;
76589;SDS011;65471;55.908;37.880;2023-07-31T00:29:38;20.75;;;10.00;;
76589;SDS011;65471;55.908;37.880;2023-07-31T00:32:06;30.45;;;10.60;;
76589;SDS011;65471;55.908;37.880;2023-07-31T00:34:33;24.50;;;9.82;;
76589;SDS011;65471;55.908;37.880;2023-07-31T00:37:00;31.30;;;11.02;;
76589;SDS011;65471;55.908;37.880;2023-07-31T00:39:27;47.20;;;19.05;;
76589;SDS011;65471;55.908;37.880;2023-07-31T00:41:54;116.97;;;41.63;;
76589;SDS011;65471;55.908;37.880;2023-07-31T00:44:21;39.30;;;10.57;;
76589;SDS011;65471;55.908;37.880;2023-07-31T00:46:48;58.75;;;16.92;;
76589;SDS011;65471;55.908;37.880;2023-07-31T00:49:15;86.05;;;30.75;;
76589;SDS011;65471;55.908;37.880;2023-07-31T00:51:43;45.10;;;16.40;;
76589;SDS011;65471;55.908;37.880;2023-07-31T00:54:10;39.83;;;16.85;;
76589;SDS011;65471;55.908;37.880;2023-07-31T00:56:37;105.07;;;37.67;;
76589;SDS011;65471;55.908;37.880;2023-07-31T00:59:05;113.35;;;42.70;;
76589;SDS011;65471;55.908;37.880;2023-07-31T01:01:31;80.57;;;31.10;;
76589;SDS011;65471;55.908;37.880;2023-07-31T01:03:58;68.22;;;25.83;;
76589;SDS011;65471;55.908;37.880;2023-07-31T01:12:09;81.07;;;24.75;;
76589;SDS011;65471;55.908;37.880;2023-07-31T01:15:19;104.63;;;46.47;;
76589;SDS011;65471;55.908;37.880;2023-07-31T01:17:41;46.83;;;18.63;;
76589;SDS011;65471;55.908;37.880;2023-07-31T01:20:13;46.13;;;16.50;;
76589;SDS011;65471;55.908;37.880;2023-07-31T01:31:19;64.65;;;22.17;;
76589;SDS011;65471;55.908;37.880;2023-07-31T01:33:49;34.95;;;13.85;;
76589;SDS011;65471;55.908;37.880;2023-07-31T01:36:19;71.47;;;26.33;;
76589;SDS011;65471;55.908;37.880;2023-07-31T01:38:46;56.40;;;17.42;;
76589;SDS011;65471;55.908;37.880;2023-07-31T01:41:13;32.35;;;11.00;;
76589;SDS011;65471;55.908;37.880;2023-07-31T01:43:44;29.10;;;11.45;;
76589;SDS011;65471;55.908;37.880;2023-07-31T01:46:12;31.33;;;10.20;;
76589;SDS011;65471;55.908;37.880;2023-07-31T01:48:39;58.67;;;20.83;;
76589;SDS011;65471;55.908;37.880;2023-07-31T01:51:06;119.45;;;46.50;;
76589;SDS011;65471;55.908;37.880;2023-07-31T01:53:33;44.67;;;13.88;;
76589;SDS011;65471;55.908;37.880;2023-07-31T01:56:00;116.80;;;41.03;;
76589;SDS011;65471;55.908;37.880;2023-07-31T01:58:27;64.70;;;25.05;;
76589;SDS011;65471;55.908;37.880;2023-07-31T02:00:54;40.70;;;13.88;;
76589;SDS011;65471;55.908;37.880;2023-07-31T02:03:21;80.43;;;28.10;;
76589;SDS011;65471;55.908;37.880;2023-07-31T02:05:48;48.42;;;18.30;;
76589;SDS011;65471;55.908;37.880;2023-07-31T02:08:16;88.00;;;27.48;;
76589;SDS011;65471;55.908;37.880;2023-07-31T02:10:43;199.60;;;83.63;;
76589;SDS011;65471;55.908;37.880;2023-07-31T02:13:10;56.58;;;15.70;;
76589;SDS011;65471;55.908;37.880;2023-07-31T02:15:37;295.63;;;120.82;;
76589;SDS011;65471;55.908;37.880;2023-07-31T02:18:04;247.68;;;102.03;;
76589;SDS011;65471;55.908;37.880;2023-07-31T02:20:35;49.67;;;17.35;;
76589;SDS011;65471;55.908;37.880;2023-07-31T02:23:02;39.83;;;15.93;;
76589;SDS011;65471;55.908;37.880;2023-07-31T02:25:29;54.60;;;20.70;;
76589;SDS011;65471;55.908;37.880;2023-07-31T02:27:56;57.00;;;22.02;;
76589;SDS011;65471;55.908;37.880;2023-07-31T02:30:23;40.97;;;13.93;;
76589;SDS011;65471;55.908;37.880;2023-07-31T02:32:50;36.65;;;12.77;;
76589;SDS011;65471;55.908;37.880;2023-07-31T02:35:17;35.60;;;12.90;;
76589;SDS011;65471;55.908;37.880;2023-07-31T02:37:45;63.77;;;14.40;;
76589;SDS011;65471;55.908;37.880;2023-07-31T02:40:12;59.92;;;19.90;;
76589;SDS011;65471;55.908;37.880;2023-07-31T02:42:39;51.53;;;13.10;;
76589;SDS011;65471;55.908;37.880;2023-07-31T02:45:06;55.10;;;20.38;;
76589;SDS011;65471;55.908;37.880;2023-07-31T02:47:33;32.10;;;11.18;;
76589;SDS011;65471;55.908;37.880;2023-07-31T02:50:01;30.80;;;11.43;;
76589;SDS011;65471;55.908;37.880;2023-07-31T02:52:30;36.03;;;11.45;;
76589;SDS011;65471;55.908;37.880;2023-07-31T02:54:57;27.58;;;11.65;;
76589;SDS011;65471;55.908;37.880;2023-07-31T02:57:24;32.15;;;11.20;;
76589;SDS011;65471;55.908;37.880;2023-07-31T02:59:51;40.85;;;11.93;;
76589;SDS011;65471;55.908;37.880;2023-07-31T03:02:18;27.58;;;11.73;;
76589;SDS011;65471;55.908;37.880;2023-07-31T03:04:46;34.03;;;11.60;;
76589;SDS011;65471;55.908;37.880;2023-07-31T03:07:12;32.97;;;10.98;;
76589;SDS011;65471;55.908;37.880;2023-07-31T03:09:39;19.30;;;8.93;;
76589;SDS011;65471;55.908;37.880;2023-07-31T03:12:07;23.40;;;10.10;;
76589;SDS011;65471;55.908;37.880;2023-07-31T03:14:34;28.65;;;10.20;;
76589;SDS011;65471;55.908;37.880;2023-07-31T03:17:01;32.80;;;12.77;;
76589;SDS011;65471;55.908;37.880;2023-07-31T03:19:30;22.85;;;10.18;;
76589;SDS011;65471;55.908;37.880;2023-07-31T03:21:58;41.13;;;9.85;;
76589;SDS011;65471;55.908;37.880;2023-07-31T03:24:25;38.37;;;10.73;;
76589;SDS011;65471;55.908;37.880;2023-07-31T03:26:52;27.50;;;9.73;;
76589;SDS011;65471;55.908;37.880;2023-07-31T03:29:19;56.40;;;14.68;;
76589;SDS011;65471;55.908;37.880;2023-07-31T03:31:50;26.95;;;9.48;;
76589;SDS011;65471;55.908;37.880;2023-07-31T03:34:17;29.75;;;9.50;;
76589;SDS011;65471;55.908;37.880;2023-07-31T03:36:44;24.75;;;9.13;;
76589;SDS011;65471;55.908;37.880;2023-07-31T03:39:11;17.02;;;7.43;;
76589;SDS011;65471;55.908;37.880;2023-07-31T03:41:38;29.70;;;7.32;;
76589;SDS011;65471;55.908;37.880;2023-07-31T03:44:04;18.38;;;8.30;;
76589;SDS011;65471;55.908;37.880;2023-07-31T03:46:31;24.23;;;8.55;;
76589;SDS011;65471;55.908;37.880;2023-07-31T03:49:00;14.32;;;7.00;;
76589;SDS011;65471;55.908;37.880;2023-07-31T03:51:27;19.95;;;7.22;;
76589;SDS011;65471;55.908;37.880;2023-07-31T03:53:54;31.17;;;7.90;;
76589;SDS011;65471;55.908;37.880;2023-07-31T03:56:21;18.95;;;7.00;;
76589;SDS011;65471;55.908;37.880;2023-07-31T03:58:48;19.88;;;6.65;;
76589;SDS011;65471;55.908;37.880;2023-07-31T04:01:15;44.20;;;9.13;;
76589;SDS011;65471;55.908;37.880;2023-07-31T04:03:43;20.30;;;8.45;;
76589;SDS011;65471;55.908;37.880;2023-07-31T04:06:10;33.53;;;7.22;;
76589;SDS011;65471;55.908;37.880;2023-07-31T04:08:37;27.88;;;7.20;;
76589;SDS011;65471;55.908;37.880;2023-07-31T04:11:04;47.08;;;7.75;;
76589;SDS011;65471;55.908;37.880;2023-07-31T04:13:31;25.30;;;7.03;;
76589;SDS011;65471;55.908;37.880;2023-07-31T04:15:58;33.17;;;7.65;;
76589;SDS011;65471;55.908;37.880;2023-07-31T04:18:25;25.40;;;6.65;;
76589;SDS011;65471;55.908;37.880;2023-07-31T04:20:52;14.17;;;7.20;;
76589;SDS011;65471;55.908;37.880;2023-07-31T04:23:22;16.27;;;6.45;;
76589;SDS011;65471;55.908;37.880;2023-07-31T04:25:49;39.75;;;6.50;;
76589;SDS011;65471;55.908;37.880;2023-07-31T04:28:16;20.67;;;6.65;;
76589;SDS011;65471;55.908;37.880;2023-07-31T04:30:43;23.73;;;6.70;;
76589;SDS011;65471;55.908;37.880;2023-07-31T04:35:39;21.58;;;5.90;;
76589;SDS011;65471;55.908;37.880;2023-07-31T04:38:06;13.55;;;6.13;;
76589;SDS011;65471;55.908;37.880;2023-07-31T04:40:32;23.35;;;6.20;;
76589;SDS011;65471;55.908;37.880;2023-07-31T04:42:59;8.18;;;4.95;;
76589;SDS011;65471;55.908;37.880;2023-07-31T04:45:26;9.38;;;5.03;;
76589;SDS011;65471;55.908;37.880;2023-07-31T04:47:53;11.82;;;5.38;;
76589;SDS011;65471;55.908;37.880;2023-07-31T04:50:20;15.77;;;5.95;;
76589;SDS011;65471;55.908;37.880;2023-07-31T04:52:47;9.43;;;5.40;;
76589;SDS011;65471;55.908;37.880;2023-07-31T04:55:14;16.95;;;5.93;;
76589;SDS011;65471;55.908;37.880;2023-07-31T04:57:41;18.63;;;5.40;;
76589;SDS011;65471;55.908;37.880;2023-07-31T05:00:08;13.27;;;5.15;;
76589;SDS011;65471;55.908;37.880;2023-07-31T05:02:35;11.18;;;4.82;;
76589;SDS011;65471;55.908;37.880;2023-07-31T05:05:02;12.88;;;5.55;;
76589;SDS011;65471;55.908;37.880;2023-07-31T05:07:30;19.48;;;4.85;;
76589;SDS011;65471;55.908;37.880;2023-07-31T05:09:56;17.73;;;5.38;;
76589;SDS011;65471;55.908;37.880;2023-07-31T05:12:24;13.00;;;4.75;;
76589;SDS011;65471;55.908;37.880;2023-07-31T05:14:51;7.63;;;4.78;;
76589;SDS011;65471;55.908;37.880;2023-07-31T05:17:18;15.45;;;4.80;;
76589;SDS011;65471;55.908;37.880;2023-07-31T05:19:45;12.30;;;4.93;;
76589;SDS011;65471;55.908;37.880;2023-07-31T05:22:11;8.98;;;4.63;;
76589;SDS011;65471;55.908;37.880;2023-07-31T05:24:38;20.85;;;4.68;;
76589;SDS011;65471;55.908;37.880;2023-07-31T05:27:05;8.77;;;4.95;;
76589;SDS011;65471;55.908;37.880;2023-07-31T05:29:32;4.82;;;4.00;;
76589;SDS011;65471;55.908;37.880;2023-07-31T05:31:59;7.22;;;4.10;;
76589;SDS011;65471;55.908;37.880;2023-07-31T05:34:26;10.25;;;4.10;;
76589;SDS011;65471;55.908;37.880;2023-07-31T05:36:53;11.30;;;4.20;;
76589;SDS011;65471;55.908;37.880;2023-07-31T05:39:20;11.50;;;4.65;;
76589;SDS011;65471;55.908;37.880;2023-07-31T05:41:47;12.05;;;4.25;;
76589;SDS011;65471;55.908;37.880;2023-07-31T05:44:14;15.95;;;4.13;;
76589;SDS011;65471;55.908;37.880;2023-07-31T05:46:41;12.88;;;4.55;;
76589;SDS011;65471;55.908;37.880;2023-07-31T05:49:08;18.73;;;5.33;;
76589;SDS011;65471;55.908;37.880;2023-07-31T05:51:35;18.15;;;4.85;;
76589;SDS011;65471;55.908;37.880;2023-07-31T05:54:02;18.00;;;3.95;;
76589;SDS011;65471;55.908;37.880;2023-07-31T05:56:29;14.25;;;4.43;;
76589;SDS011;65471;55.908;37.880;2023-07-31T05:58:56;9.48;;;3.90;;
76589;SDS011;65471;55.908;37.880;2023-07-31T06:01:23;12.73;;;4.35;;
76589;SDS011;65471;55.908;37.880;2023-07-31T06:03:50;14.95;;;4.22;;
76589;SDS011;65471;55.908;37.880;2023-07-31T06:06:18;27.85;;;4.55;;
76589;SDS011;65471;55.908;37.880;2023-07-31T06:08:45;7.25;;;3.67;;
76589;SDS011;65471;55.908;37.880;2023-07-31T06:11:11;11.82;;;4.13;;
76589;SDS011;65471;55.908;37.880;2023-07-31T06:13:38;4.32;;;3.88;;
76589;SDS011;65471;55.908;37.880;2023-07-31T06:16:09;16.85;;;4.43;;
76589;SDS011;65471;55.908;37.880;2023-07-31T06:18:36;11.80;;;4.30;;
76589;SDS011;65471;55.908;37.880;2023-07-31T06:21:02;7.47;;;4.75;;
76589;SDS011;65471;55.908;37.880;2023-07-31T06:23:29;20.60;;;5.75;;
76589;SDS011;65471;55.908;37.880;2023-07-31T06:25:56;8.65;;;5.40;;
76589;SDS011;65471;55.908;37.880;2023-07-31T06:28:27;17.60;;;5.28;;
76589;SDS011;65471;55.908;37.880;2023-07-31T06:30:58;22.90;;;5.10;;
76589;SDS011;65471;55.908;37.880;2023-07-31T06:33:25;16.45;;;4.82;;
76589;SDS011;65471;55.908;37.880;2023-07-31T06:35:52;5.88;;;3.97;;
76589;SDS011;65471;55.908;37.880;2023-07-31T06:38:21;15.95;;;4.75;;
76589;SDS011;65471;55.908;37.880;2023-07-31T06:40:49;47.28;;;4.90;;
76589;SDS011;65471;55.908;37.880;2023-07-31T06:43:16;31.67;;;4.53;;
76589;SDS011;65471;55.908;37.880;2023-07-31T06:45:43;25.02;;;4.38;;
76589;SDS011;65471;55.908;37.880;2023-07-31T06:48:11;18.00;;;4.05;;
76589;SDS011;65471;55.908;37.880;2023-07-31T06:50:38;13.30;;;4.03;;
76589;SDS011;65471;55.908;37.880;2023-07-31T06:53:05;8.82;;;3.53;;
76589;SDS011;65471;55.908;37.880;2023-07-31T06:55:33;9.55;;;3.35;;
76589;SDS011;65471;55.908;37.880;2023-07-31T06:57:59;6.63;;;3.28;;
76589;SDS011;65471;55.908;37.880;2023-07-31T07:00:26;8.18;;;2.90;;
76589;SDS011;65471;55.908;37.880;2023-07-31T07:02:54;13.00;;;3.50;;
76589;SDS011;65471;55.908;37.880;2023-07-31T07:05:21;7.18;;;3.10;;
76589;SDS011;65471;55.908;37.880;2023-07-31T07:07:49;5.68;;;3.08;;
76589;SDS011;65471;55.908;37.880;2023-07-31T07:10:18;4.10;;;3.05;;
76589;SDS011;65471;55.908;37.880;2023-07-31T07:12:45;10.45;;;3.17;;
76589;SDS011;65471;55.908;37.880;2023-07-31T07:15:12;9.00;;;2.70;;
76589;SDS011;65471;55.908;37.880;2023-07-31T07:17:39;6.65;;;3.03;;
76589;SDS011;65471;55.908;37.880;2023-07-31T07:20:06;159.90;;;10.73;;
76589;SDS011;65471;55.908;37.880;2023-07-31T07:22:34;13.70;;;3.67;;
76589;SDS011;65471;55.908;37.880;2023-07-31T07:25:01;6.10;;;3.35;;
76589;SDS011;65471;55.908;37.880;2023-07-31T07:27:30;3.30;;;3.10;;
76589;SDS011;65471;55.908;37.880;2023-07-31T07:29:57;7.82;;;3.00;;
76589;SDS011;65471;55.908;37.880;2023-07-31T07:32:24;8.57;;;3.65;;
76589;SDS011;65471;55.908;37.880;2023-07-31T07:34:51;21.38;;;4.32;;
76589;SDS011;65471;55.908;37.880;2023-07-31T07:37:18;15.82;;;3.05;;
76589;SDS011;65471;55.908;37.880;2023-07-31T07:39:45;3.50;;;3.05;;
76589;SDS011;65471;55.908;37.880;2023-07-31T07:42:12;7.28;;;2.78;;
76589;SDS011;65471;55.908;37.880;2023-07-31T07:44:39;2.83;;;2.60;;
76589;SDS011;65471;55.908;37.880;2023-07-31T07:47:06;16.45;;;3.30;;
76589;SDS011;65471;55.908;37.880;2023-07-31T07:49:34;3.35;;;2.95;;
76589;SDS011;65471;55.908;37.880;2023-07-31T07:54:29;7.00;;;3.40;;
76589;SDS011;65471;55.908;37.880;2023-07-31T07:56:57;4.38;;;3.53;;
76589;SDS011;65471;55.908;37.880;2023-07-31T07:59:24;5.60;;;2.92;;
76589;SDS011;65471;55.908;37.880;2023-07-31T08:01:51;6.28;;;3.03;;
76589;SDS011;65471;55.908;37.880;2023-07-31T08:04:18;7.20;;;3.80;;
76589;SDS011;65471;55.908;37.880;2023-07-31T08:06:45;13.38;;;3.53;;
76589;SDS011;65471;55.908;37.880;2023-07-31T08:09:12;4.85;;;3.10;;
76589;SDS011;65471;55.908;37.880;2023-07-31T08:11:38;2.90;;;2.63;;
76589;SDS011;65471;55.908;37.880;2023-07-31T08:14:05;11.07;;;2.88;;
76589;SDS011;65471;55.908;37.880;2023-07-31T08:16:32;6.60;;;2.80;;
76589;SDS011;65471;55.908;37.880;2023-07-31T08:18:59;2.90;;;2.70;;
76589;SDS011;65471;55.908;37.880;2023-07-31T08:21:27;11.98;;;2.95;;
76589;SDS011;65471;55.908;37.880;2023-07-31T08:23:54;10.25;;;2.85;;
76589;SDS011;65471;55.908;37.880;2023-07-31T08:26:20;2.75;;;2.55;;
76589;SDS011;65471;55.908;37.880;2023-07-31T08:28:47;3.03;;;2.80;;
76589;SDS011;65471;55.908;37.880;2023-07-31T08:31:14;3.50;;;3.20;;
76589;SDS011;65471;55.908;37.880;2023-07-31T08:33:41;3.95;;;3.03;;
76589;SDS011;65471;55.908;37.880;2023-07-31T08:36:08;15.25;;;3.08;;
76589;SDS011;65471;55.908;37.880;2023-07-31T08:38:35;5.28;;;2.85;;
76589;SDS011;65471;55.908;37.880;2023-07-31T08:41:03;9.95;;;2.75;;
76589;SDS011;65471;55.908;37.880;2023-07-31T08:43:31;18.17;;;3.00;;
76589;SDS011;65471;55.908;37.880;2023-07-31T08:45:59;8.02;;;2.97;;
76589;SDS011;65471;55.908;37.880;2023-07-31T08:48:27;5.78;;;3.00;;
76589;SDS011;65471;55.908;37.880;2023-07-31T08:50:55;8.65;;;3.00;;
76589;SDS011;65471;55.908;37.880;2023-07-31T08:53:22;3.50;;;3.22;;
76589;SDS011;65471;55.908;37.880;2023-07-31T08:55:49;5.60;;;3.28;;
76589;SDS011;65471;55.908;37.880;2023-07-31T08:58:19;3.30;;;3.10;;
76589;SDS011;65471;55.908;37.880;2023-07-31T09:00:47;3.30;;;3.00;;
76589;SDS011;65471;55.908;37.880;2023-07-31T09:03:18;9.15;;;3.20;;
76589;SDS011;65471;55.908;37.880;2023-07-31T09:08:13;5.80;;;3.15;;
76589;SDS011;65471;55.908;37.880;2023-07-31T09:10:43;6.72;;;2.97;;
76589;SDS011;65471;55.908;37.880;2023-07-31T09:13:14;5.65;;;2.95;;
76589;SDS011;65471;55.908;37.880;2023-07-31T09:15:45;10.18;;;3.03;;
76589;SDS011;65471;55.908;37.880;2023-07-31T09:18:13;5.85;;;3.00;;
76589;SDS011;65471;55.908;37.880;2023-07-31T09:20:44;3.45;;;3.25;;
76589;SDS011;65471;55.908;37.880;2023-07-31T09:23:11;9.55;;;3.50;;
76589;SDS011;65471;55.908;37.880;2023-07-31T09:25:40;4.53;;;3.20;;
76589;SDS011;65471;55.908;37.880;2023-07-31T09:28:11;7.75;;;3.55;;
76589;SDS011;65471;55.908;37.880;2023-07-31T09:30:49;4.00;;;3.25;;
76589;SDS011;65471;55.908;37.880;2023-07-31T09:33:17;3.90;;;3.60;;
76589;SDS011;65471;55.908;37.880;2023-07-31T09:35:46;9.80;;;3.20;;
76589;SDS011;65471;55.908;37.880;2023-07-31T09:38:15;25.40;;;3.55;;
76589;SDS011;65471;55.908;37.880;2023-07-31T09:40:44;3.40;;;2.97;;
76589;SDS011;65471;55.908;37.880;2023-07-31T09:43:17;2.88;;;2.78;;
76589;SDS011;65471;55.908;37.880;2023-07-31T09:45:46;11.00;;;2.88;;
76589;SDS011;65471;55.908;37.880;2023-07-31T09:48:14;20.50;;;3.45;;
76589;SDS011;65471;55.908;37.880;2023-07-31T09:50:44;8.38;;;3.33;;
76589;SDS011;65471;55.908;37.880;2023-07-31T09:53:12;5.88;;;3.58;;
76589;SDS011;65471;55.908;37.880;2023-07-31T09:55:40;9.27;;;3.22;;
76589;SDS011;65471;55.908;37.880;2023-07-31T09:58:08;7.25;;;3.00;;
76589;SDS011;65471;55.908;37.880;2023-07-31T10:00:36;2.97;;;2.80;;
76589;SDS011;65471;55.908;37.880;2023-07-31T10:03:07;4.38;;;3.13;;
76589;SDS011;65471;55.908;37.880;2023-07-31T10:08:03;7.72;;;3.72;;
76589;SDS011;65471;55.908;37.880;2023-07-31T10:10:30;7.03;;;3.15;;
76589;SDS011;65471;55.908;37.880;2023-07-31T10:12:58;7.03;;;3.30;;
76589;SDS011;65471;55.908;37.880;2023-07-31T10:15:27;5.38;;;3.33;;
76589;SDS011;65471;55.908;37.880;2023-07-31T10:17:56;4.00;;;3.78;;
76589;SDS011;65471;55.908;37.880;2023-07-31T10:20:23;9.55;;;5.18;;
76589;SDS011;65471;55.908;37.880;2023-07-31T10:22:53;10.90;;;5.32;;
76589;SDS011;65471;55.908;37.880;2023-07-31T10:25:21;7.88;;;3.78;;
76589;SDS011;65471;55.908;37.880;2023-07-31T10:27:49;6.03;;;5.20;;
76589;SDS011;65471;55.908;37.880;2023-07-31T10:30:17;7.75;;;4.10;;
76589;SDS011;65471;55.908;37.880;2023-07-31T10:32:46;5.13;;;4.22;;
76589;SDS011;65471;55.908;37.880;2023-07-31T10:35:16;5.47;;;3.30;;
76589;SDS011;65471;55.908;37.880;2023-07-31T10:37:44;7.13;;;3.30;;
76589;SDS011;65471;55.908;37.880;2023-07-31T10:40:24;3.55;;;3.30;;
76589;SDS011;65471;55.908;37.880;2023-07-31T10:42:56;10.38;;;2.97;;
76589;SDS011;65471;55.908;37.880;2023-07-31T10:48:04;9.02;;;3.35;;
76589;SDS011;65471;55.908;37.880;2023-07-31T10:50:47;5.43;;;3.50;;
76589;SDS011;65471;55.908;37.880;2023-07-31T10:53:24;9.10;;;3.13;;
76589;SDS011;65471;55.908;37.880;2023-07-31T10:55:52;7.95;;;4.00;;
76589;SDS011;65471;55.908;37.880;2023-07-31T10:58:20;4.70;;;3.85;;
76589;SDS011;65471;55.908;37.880;2023-07-31T11:00:51;3.58;;;3.35;;
76589;SDS011;65471;55.908;37.880;2023-07-31T11:03:25;6.00;;;3.45;;
76589;SDS011;65471;55.908;37.880;2023-07-31T11:08:32;11.10;;;3.38;;
76589;SDS011;65471;55.908;37.880;2023-07-31T11:13:45;4.05;;;3.53;;
76589;SDS011;65471;55.908;37.880;2023-07-31T11:16:16;14.52;;;3.88;;
76589;SDS011;65471;55.908;37.880;2023-07-31T11:18:46;9.43;;;3.45;;
76589;SDS011;65471;55.908;37.880;2023-07-31T11:21:16;4.57;;;3.58;;
76589;SDS011;65471;55.908;37.880;2023-07-31T11:23:53;17.58;;;3.78;;
76589;SDS011;65471;55.908;37.880;2023-07-31T11:26:24;14.27;;;3.90;;
76589;SDS011;65471;55.908;37.880;2023-07-31T11:28:51;11.98;;;3.75;;
76589;SDS011;65471;55.908;37.880;2023-07-31T11:31:18;10.18;;;3.90;;
76589;SDS011;65471;55.908;37.880;2023-07-31T11:33:45;12.57;;;3.87;;
76589;SDS011;65471;55.908;37.880;2023-07-31T11:36:16;1254.60;;;62.30;;
76589;SDS011;65471;55.908;37.880;2023-07-31T11:38:45;27.25;;;5.03;;
76589;SDS011;65471;55.908;37.880;2023-07-31T11:41:13;17.67;;;4.87;;
76589;SDS011;65471;55.908;37.880;2023-07-31T11:43:42;35.30;;;4.35;;
76589;SDS011;65471;55.908;37.880;2023-07-31T11:46:09;27.77;;;5.28;;
76589;SDS011;65471;55.908;37.880;2023-07-31T11:48:37;18.67;;;4.55;;
76589;SDS011;65471;55.908;37.880;2023-07-31T11:51:05;13.03;;;4.30;;
76589;SDS011;65471;55.908;37.880;2023-07-31T11:53:37;13.98;;;4.00;;
76589;SDS011;65471;55.908;37.880;2023-07-31T11:56:08;9.65;;;3.88;;
76589;SDS011;65471;55.908;37.880;2023-07-31T11:58:38;23.20;;;3.85;;
76589;SDS011;65471;55.908;37.880;2023-07-31T12:01:05;54.42;;;4.47;;
76589;SDS011;65471;55.908;37.880;2023-07-31T12:03:33;11.77;;;3.72;;
76589;SDS011;65471;55.908;37.880;2023-07-31T12:06:01;4.72;;;3.85;;
76589;SDS011;65471;55.908;37.880;2023-07-31T12:08:29;3.78;;;3.53;;
76589;SDS011;65471;55.908;37.880;2023-07-31T12:11:01;7.07;;;4.05;;
76589;SDS011;65471;55.908;37.880;2023-07-31T12:13:30;12.65;;;3.97;;
76589;SDS011;65471;55.908;37.880;2023-07-31T12:16:03;18.77;;;4.10;;
76589;SDS011;65471;55.908;37.880;2023-07-31T12:18:35;8.57;;;3.58;;
76589;SDS011;65471;55.908;37.880;2023-07-31T12:21:05;9.65;;;5.60;;
76589;SDS011;65471;55.908;37.880;2023-07-31T12:23:34;16.50;;;6.60;;
76589;SDS011;65471;55.908;37.880;2023-07-31T12:28:47;17.60;;;4.85;;
76589;SDS011;65471;55.908;37.880;2023-07-31T12:31:17;12.25;;;5.00;;
76589;SDS011;65471;55.908;37.880;2023-07-31T12:33:46;15.25;;;5.82;;
76589;SDS011;65471;55.908;37.880;2023-07-31T12:36:14;53.97;;;23.80;;
76589;SDS011;65471;55.908;37.880;2023-07-31T12:38:44;56.05;;;25.05;;
76589;SDS011;65471;55.908;37.880;2023-07-31T12:41:11;122.07;;;47.73;;
76589;SDS011;65471;55.908;37.880;2023-07-31T12:43:40;152.20;;;63.92;;
76589;SDS011;65471;55.908;37.880;2023-07-31T12:46:08;121.00;;;48.72;;
76589;SDS011;65471;55.908;37.880;2023-07-31T12:48:37;79.03;;;30.17;;
76589;SDS011;65471;55.908;37.880;2023-07-31T12:51:05;62.33;;;19.20;;
76589;SDS011;65471;55.908;37.880;2023-07-31T12:53:33;31.20;;;9.88;;
76589;SDS011;65471;55.908;37.880;2023-07-31T12:56:00;15.10;;;6.03;;
76589;SDS011;65471;55.908;37.880;2023-07-31T12:58:27;22.83;;;5.90;;
76589;SDS011;65471;55.908;37.880;2023-07-31T13:00:54;36.55;;;12.88;;
76589;SDS011;65471;55.908;37.880;2023-07-31T13:03:22;24.63;;;6.72;;
76589;SDS011;65471;55.908;37.880;2023-07-31T13:05:49;21.10;;;4.97;;
76589;SDS011;65471;55.908;37.880;2023-07-31T13:08:17;18.10;;;5.68;;
76589;SDS011;65471;55.908;37.880;2023-07-31T13:10:44;4.30;;;3.90;;
76589;SDS011;65471;55.908;37.880;2023-07-31T13:13:11;9.95;;;4.43;;
76589;SDS011;65471;55.908;37.880;2023-07-31T13:15:38;18.48;;;4.88;;
76589;SDS011;65471;55.908;37.880;2023-07-31T13:18:05;12.20;;;4.88;;
76589;SDS011;65471;55.908;37.880;2023-07-31T13:20:32;51.28;;;18.70;;
76589;SDS011;65471;55.908;37.880;2023-07-31T13:22:59;13.77;;;5.82;;
76589;SDS011;65471;55.908;37.880;2023-07-31T13:25:26;18.02;;;6.10;;
76589;SDS011;65471;55.908;37.880;2023-07-31T13:27:53;75.93;;;18.10;;
76589;SDS011;65471;55.908;37.880;2023-07-31T13:30:21;50.42;;;16.73;;
76589;SDS011;65471;55.908;37.880;2023-07-31T13:32:48;9.85;;;5.15;;
76589;SDS011;65471;55.908;37.880;2023-07-31T13:35:15;144.32;;;46.83;;
76589;SDS011;65471;55.908;37.880;2023-07-31T13:37:42;21.55;;;6.80;;
76589;SDS011;65471;55.908;37.880;2023-07-31T13:40:09;108.65;;;31.05;;
76589;SDS011;65471;55.908;37.880;2023-07-31T13:42:36;11.50;;;5.43;;
76589;SDS011;65471;55.908;37.880;2023-07-31T13:45:03;560.53;;;216.63;;
76589;SDS011;65471;55.908;37.880;2023-07-31T13:47:33;582.85;;;226.50;;
76589;SDS011;65471;55.908;37.880;2023-07-31T13:50:01;400.50;;;132.63;;
76589;SDS011;65471;55.908;37.880;2023-07-31T13:52:30;333.75;;;104.47;;
76589;SDS011;65471;55.908;37.880;2023-07-31T13:54:57;288.92;;;97.18;;
76589;SDS011;65471;55.908;37.880;2023-07-31T13:57:24;278.25;;;82.47;;
76589;SDS011;65471;55.908;37.880;2023-07-31T13:59:51;259.13;;;70.00;;
76589;SDS011;65471;55.908;37.880;2023-07-31T14:02:18;260.45;;;67.68;;
76589;SDS011;65471;55.908;37.880;2023-07-31T14:04:45;226.90;;;39.28;;
76589;SDS011;65471;55.908;37.880;2023-07-31T14:07:12;185.32;;;42.03;;
76589;SDS011;65471;55.908;37.880;2023-07-31T14:09:39;69.55;;;23.65;;
76589;SDS011;65471;55.908;37.880;2023-07-31T14:12:06;31.50;;;7.72;;
76589;SDS011;65471;55.908;37.880;2023-07-31T14:14:33;68.72;;;16.13;;
76589;SDS011;65471;55.908;37.880;2023-07-31T14:17:01;9.35;;;5.00;;
76589;SDS011;65471;55.908;37.880;2023-07-31T14:19:28;37.55;;;11.25;;
76589;SDS011;65471;55.908;37.880;2023-07-31T14:21:57;205.07;;;60.72;;
76589;SDS011;65471;55.908;37.880;2023-07-31T14:24:35;101.80;;;27.00;;
76589;SDS011;65471;55.908;37.880;2023-07-31T14:27:02;94.75;;;31.95;;
76589;SDS011;65471;55.908;37.880;2023-07-31T14:29:30;19.13;;;6.50;;
76589;SDS011;65471;55.908;37.880;2023-07-31T14:31:57;9.35;;;5.90;;
76589;SDS011;65471;55.908;37.880;2023-07-31T14:34:23;28.25;;;5.55;;
76589;SDS011;65471;55.908;37.880;2023-07-31T14:36:50;63.45;;;19.27;;
76589;SDS011;65471;55.908;37.880;2023-07-31T14:39:17;32.55;;;8.68;;
76589;SDS011;65471;55.908;37.880;2023-07-31T14:41:44;15.48;;;5.55;;
76589;SDS011;65471;55.908;37.880;2023-07-31T14:44:11;23.83;;;5.18;;
76589;SDS011;65471;55.908;37.880;2023-07-31T14:46:38;62.63;;;22.77;;
76589;SDS011;65471;55.908;37.880;2023-07-31T14:49:05;47.70;;;17.83;;
76589;SDS011;65471;55.908;37.880;2023-07-31T14:51:32;51.35;;;20.30;;
76589;SDS011;65471;55.908;37.880;2023-07-31T14:53:59;33.50;;;13.38;;
76589;SDS011;65471;55.908;37.880;2023-07-31T14:56:26;42.58;;;17.98;;
76589;SDS011;65471;55.908;37.880;2023-07-31T14:58:54;27.75;;;11.30;;